sensor_id;sensor_type;location;lat;lon;timestamp;P1;durP1;ratioP1;P2;durP2;ratioP2
38117;SDS011;23928;47.562;7.508;2023-06-24T00:00:04;6.70;;;4.83;;
38117;SDS011;23928;47.562;7.508;2023-06-24T00:02:34;5.03;;;3.67;;
38117;SDS011;23928;47.562;7.508;2023-06-24T00:05:02;7.50;;;4.30;;
38117;SDS011;23928;47.562;7.508;2023-06-24T00:07:31;6.03;;;4.40;;
38117;SDS011;23928;47.562;7.508;2023-06-24T00:09:57;6.17;;;4.43;;
38117;SDS011;23928;47.562;7.508;2023-06-24T00:12:23;5.13;;;3.87;;
38117;SDS011;23928;47.562;7.508;2023-06-24T00:14:49;5.10;;;4.00;;
38117;SDS011;23928;47.562;7.508;2023-06-24T00:17:15;6.23;;;3.90;;
38117;SDS011;23928;47.562;7.508;2023-06-24T00:19:43;7.00;;;4.50;;
38117;SDS011;23928;47.562;7.508;2023-06-24T00:22:09;4.23;;;3.80;;
38117;SDS011;23928;47.562;7.508;2023-06-24T00:24:35;5.77;;;4.37;;
38117;SDS011;23928;47.562;7.508;2023-06-24T00:27:00;5.07;;;4.27;;
38117;SDS011;23928;47.562;7.508;2023-06-24T00:29:26;5.17;;;4.07;;
38117;SDS011;23928;47.562;7.508;2023-06-24T00:31:52;6.50;;;4.23;;
38117;SDS011;23928;47.562;7.508;2023-06-24T00:34:17;5.73;;;4.37;;
38117;SDS011;23928;47.562;7.508;2023-06-24T00:36:45;6.30;;;4.17;;
38117;SDS011;23928;47.562;7.508;2023-06-24T00:39:12;6.57;;;4.33;;
38117;SDS011;23928;47.562;7.508;2023-06-24T00:41:37;4.73;;;3.77;;
38117;SDS011;23928;47.562;7.508;2023-06-24T00:44:03;5.87;;;3.93;;
38117;SDS011;23928;47.562;7.508;2023-06-24T00:46:29;6.13;;;4.30;;
38117;SDS011;23928;47.562;7.508;2023-06-24T00:48:58;4.33;;;3.90;;
38117;SDS011;23928;47.562;7.508;2023-06-24T00:51:25;4.43;;;3.90;;
38117;SDS011;23928;47.562;7.508;2023-06-24T00:53:54;5.37;;;3.97;;
38117;SDS011;23928;47.562;7.508;2023-06-24T00:56:21;6.03;;;3.80;;
38117;SDS011;23928;47.562;7.508;2023-06-24T00:58:50;7.07;;;3.80;;
38117;SDS011;23928;47.562;7.508;2023-06-24T01:01:16;5.07;;;3.90;;
38117;SDS011;23928;47.562;7.508;2023-06-24T01:03:43;5.80;;;4.20;;
38117;SDS011;23928;47.562;7.508;2023-06-24T01:06:09;7.53;;;4.17;;
38117;SDS011;23928;47.562;7.508;2023-06-24T01:08:35;6.00;;;3.87;;
38117;SDS011;23928;47.562;7.508;2023-06-24T01:11:01;6.20;;;4.03;;
38117;SDS011;23928;47.562;7.508;2023-06-24T01:13:26;4.27;;;3.83;;
38117;SDS011;23928;47.562;7.508;2023-06-24T01:15:52;6.13;;;4.10;;
38117;SDS011;23928;47.562;7.508;2023-06-24T01:18:21;6.33;;;3.90;;
38117;SDS011;23928;47.562;7.508;2023-06-24T01:21:15;4.73;;;4.00;;
38117;SDS011;23928;47.562;7.508;2023-06-24T01:29:58;4.80;;;4.07;;
38117;SDS011;23928;47.562;7.508;2023-06-24T01:32:44;6.27;;;4.27;;
38117;SDS011;23928;47.562;7.508;2023-06-24T01:35:16;7.60;;;4.20;;
38117;SDS011;23928;47.562;7.508;2023-06-24T01:37:47;5.47;;;4.20;;
38117;SDS011;23928;47.562;7.508;2023-06-24T01:42:47;6.33;;;4.67;;
38117;SDS011;23928;47.562;7.508;2023-06-24T01:45:15;7.57;;;4.67;;
38117;SDS011;23928;47.562;7.508;2023-06-24T01:47:46;6.50;;;4.30;;
38117;SDS011;23928;47.562;7.508;2023-06-24T01:50:13;5.73;;;4.27;;
38117;SDS011;23928;47.562;7.508;2023-06-24T01:52:41;5.37;;;4.30;;
38117;SDS011;23928;47.562;7.508;2023-06-24T01:55:09;6.63;;;4.60;;
38117;SDS011;23928;47.562;7.508;2023-06-24T01:57:37;6.13;;;4.80;;
38117;SDS011;23928;47.562;7.508;2023-06-24T02:00:07;7.67;;;5.13;;
38117;SDS011;23928;47.562;7.508;2023-06-24T02:02:34;7.07;;;4.47;;
38117;SDS011;23928;47.562;7.508;2023-06-24T02:05:01;4.87;;;3.93;;
38117;SDS011;23928;47.562;7.508;2023-06-24T02:07:29;5.57;;;4.27;;
38117;SDS011;23928;47.562;7.508;2023-06-24T02:09:56;6.27;;;4.80;;
38117;SDS011;23928;47.562;7.508;2023-06-24T02:12:23;6.00;;;4.20;;
38117;SDS011;23928;47.562;7.508;2023-06-24T02:14:50;6.63;;;4.63;;
38117;SDS011;23928;47.562;7.508;2023-06-24T02:17:17;7.30;;;4.27;;
38117;SDS011;23928;47.562;7.508;2023-06-24T02:19:45;4.20;;;3.77;;
38117;SDS011;23928;47.562;7.508;2023-06-24T02:22:12;6.80;;;4.10;;
38117;SDS011;23928;47.562;7.508;2023-06-24T02:24:38;5.20;;;4.30;;
38117;SDS011;23928;47.562;7.508;2023-06-24T02:27:06;6.13;;;4.27;;
38117;SDS011;23928;47.562;7.508;2023-06-24T02:29:33;7.90;;;4.53;;
38117;SDS011;23928;47.562;7.508;2023-06-24T02:32:01;4.97;;;4.27;;
38117;SDS011;23928;47.562;7.508;2023-06-24T02:34:27;5.43;;;4.57;;
38117;SDS011;23928;47.562;7.508;2023-06-24T02:36:53;7.20;;;4.03;;
38117;SDS011;23928;47.562;7.508;2023-06-24T02:39:19;9.67;;;4.43;;
38117;SDS011;23928;47.562;7.508;2023-06-24T02:41:45;6.23;;;4.77;;
38117;SDS011;23928;47.562;7.508;2023-06-24T02:44:12;6.90;;;4.47;;
38117;SDS011;23928;47.562;7.508;2023-06-24T02:46:38;6.63;;;4.60;;
38117;SDS011;23928;47.562;7.508;2023-06-24T02:49:05;7.90;;;4.33;;
38117;SDS011;23928;47.562;7.508;2023-06-24T02:51:34;5.07;;;4.00;;
38117;SDS011;23928;47.562;7.508;2023-06-24T02:54:01;5.03;;;4.43;;
38117;SDS011;23928;47.562;7.508;2023-06-24T02:56:28;5.97;;;4.20;;
38117;SDS011;23928;47.562;7.508;2023-06-24T02:58:53;4.90;;;3.93;;
38117;SDS011;23928;47.562;7.508;2023-06-24T03:01:19;6.43;;;3.67;;
38117;SDS011;23928;47.562;7.508;2023-06-24T03:03:49;6.87;;;4.37;;
38117;SDS011;23928;47.562;7.508;2023-06-24T03:06:17;6.37;;;4.40;;
38117;SDS011;23928;47.562;7.508;2023-06-24T03:08:44;8.23;;;4.73;;
38117;SDS011;23928;47.562;7.508;2023-06-24T03:11:14;6.17;;;4.07;;
38117;SDS011;23928;47.562;7.508;2023-06-24T03:13:41;4.07;;;3.50;;
38117;SDS011;23928;47.562;7.508;2023-06-24T03:16:07;6.10;;;4.13;;
38117;SDS011;23928;47.562;7.508;2023-06-24T03:18:37;5.50;;;4.13;;
38117;SDS011;23928;47.562;7.508;2023-06-24T03:21:04;4.60;;;3.70;;
38117;SDS011;23928;47.562;7.508;2023-06-24T03:23:31;5.17;;;4.43;;
38117;SDS011;23928;47.562;7.508;2023-06-24T03:25:56;5.10;;;4.43;;
38117;SDS011;23928;47.562;7.508;2023-06-24T03:28:22;5.97;;;4.67;;
38117;SDS011;23928;47.562;7.508;2023-06-24T03:30:47;5.03;;;4.40;;
38117;SDS011;23928;47.562;7.508;2023-06-24T03:33:13;6.67;;;4.40;;
38117;SDS011;23928;47.562;7.508;2023-06-24T03:35:41;6.10;;;4.23;;
38117;SDS011;23928;47.562;7.508;2023-06-24T03:38:07;6.43;;;4.07;;
38117;SDS011;23928;47.562;7.508;2023-06-24T03:40:33;7.33;;;4.60;;
38117;SDS011;23928;47.562;7.508;2023-06-24T03:42:59;7.17;;;4.50;;
38117;SDS011;23928;47.562;7.508;2023-06-24T03:45:24;7.03;;;4.40;;
38117;SDS011;23928;47.562;7.508;2023-06-24T03:47:50;5.07;;;4.47;;
38117;SDS011;23928;47.562;7.508;2023-06-24T03:50:16;5.70;;;4.50;;
38117;SDS011;23928;47.562;7.508;2023-06-24T03:52:41;6.00;;;4.67;;
38117;SDS011;23928;47.562;7.508;2023-06-24T03:55:09;7.33;;;4.90;;
38117;SDS011;23928;47.562;7.508;2023-06-24T03:57:34;6.77;;;4.23;;
38117;SDS011;23928;47.562;7.508;2023-06-24T04:00:00;4.93;;;4.43;;
38117;SDS011;23928;47.562;7.508;2023-06-24T04:02:25;6.53;;;4.73;;
38117;SDS011;23928;47.562;7.508;2023-06-24T04:04:52;6.07;;;4.20;;
38117;SDS011;23928;47.562;7.508;2023-06-24T04:07:18;6.23;;;4.17;;
38117;SDS011;23928;47.562;7.508;2023-06-24T04:09:53;5.07;;;4.57;;
38117;SDS011;23928;47.562;7.508;2023-06-24T04:12:19;6.87;;;4.90;;
38117;SDS011;23928;47.562;7.508;2023-06-24T04:14:45;5.70;;;4.57;;
38117;SDS011;23928;47.562;7.508;2023-06-24T04:17:10;7.10;;;4.70;;
38117;SDS011;23928;47.562;7.508;2023-06-24T04:19:36;5.27;;;4.40;;
38117;SDS011;23928;47.562;7.508;2023-06-24T04:22:02;7.90;;;4.67;;
38117;SDS011;23928;47.562;7.508;2023-06-24T04:24:27;8.73;;;4.83;;
38117;SDS011;23928;47.562;7.508;2023-06-24T04:26:53;6.97;;;4.50;;
38117;SDS011;23928;47.562;7.508;2023-06-24T04:29:18;6.03;;;5.00;;
38117;SDS011;23928;47.562;7.508;2023-06-24T04:31:44;5.83;;;4.87;;
38117;SDS011;23928;47.562;7.508;2023-06-24T04:34:09;8.20;;;5.23;;
38117;SDS011;23928;47.562;7.508;2023-06-24T04:36:35;6.60;;;4.87;;
38117;SDS011;23928;47.562;7.508;2023-06-24T04:39:00;6.57;;;5.30;;
38117;SDS011;23928;47.562;7.508;2023-06-24T04:41:26;8.53;;;5.33;;
38117;SDS011;23928;47.562;7.508;2023-06-24T04:43:52;7.40;;;5.10;;
38117;SDS011;23928;47.562;7.508;2023-06-24T04:46:17;6.40;;;5.37;;
38117;SDS011;23928;47.562;7.508;2023-06-24T04:48:43;8.57;;;6.13;;
38117;SDS011;23928;47.562;7.508;2023-06-24T04:51:08;7.90;;;5.40;;
38117;SDS011;23928;47.562;7.508;2023-06-24T04:53:34;7.87;;;5.53;;
38117;SDS011;23928;47.562;7.508;2023-06-24T04:56:00;6.63;;;5.93;;
38117;SDS011;23928;47.562;7.508;2023-06-24T04:58:25;7.73;;;5.30;;
38117;SDS011;23928;47.562;7.508;2023-06-24T05:00:51;7.63;;;5.90;;
38117;SDS011;23928;47.562;7.508;2023-06-24T05:03:16;12.40;;;6.47;;
38117;SDS011;23928;47.562;7.508;2023-06-24T05:05:42;7.37;;;6.40;;
38117;SDS011;23928;47.562;7.508;2023-06-24T05:08:08;8.20;;;5.93;;
38117;SDS011;23928;47.562;7.508;2023-06-24T05:10:33;6.77;;;5.77;;
38117;SDS011;23928;47.562;7.508;2023-06-24T05:12:59;7.57;;;5.43;;
38117;SDS011;23928;47.562;7.508;2023-06-24T05:15:24;8.00;;;6.00;;
38117;SDS011;23928;47.562;7.508;2023-06-24T05:17:50;8.30;;;6.57;;
38117;SDS011;23928;47.562;7.508;2023-06-24T05:20:15;6.60;;;5.93;;
38117;SDS011;23928;47.562;7.508;2023-06-24T05:22:42;9.93;;;6.60;;
38117;SDS011;23928;47.562;7.508;2023-06-24T05:25:08;10.33;;;6.20;;
38117;SDS011;23928;47.562;7.508;2023-06-24T05:27:34;7.30;;;6.57;;
38117;SDS011;23928;47.562;7.508;2023-06-24T05:30:00;6.97;;;6.27;;
38117;SDS011;23928;47.562;7.508;2023-06-24T05:32:25;8.93;;;6.47;;
38117;SDS011;23928;47.562;7.508;2023-06-24T05:34:51;7.73;;;6.73;;
38117;SDS011;23928;47.562;7.508;2023-06-24T05:37:16;7.63;;;6.33;;
38117;SDS011;23928;47.562;7.508;2023-06-24T05:39:42;8.37;;;6.63;;
38117;SDS011;23928;47.562;7.508;2023-06-24T05:42:08;8.10;;;6.30;;
38117;SDS011;23928;47.562;7.508;2023-06-24T05:44:33;9.63;;;6.70;;
38117;SDS011;23928;47.562;7.508;2023-06-24T05:46:59;11.47;;;6.57;;
38117;SDS011;23928;47.562;7.508;2023-06-24T05:49:24;8.63;;;6.87;;
38117;SDS011;23928;47.562;7.508;2023-06-24T05:51:50;8.50;;;6.63;;
38117;SDS011;23928;47.562;7.508;2023-06-24T05:54:16;7.63;;;6.37;;
38117;SDS011;23928;47.562;7.508;2023-06-24T05:56:41;7.47;;;6.20;;
38117;SDS011;23928;47.562;7.508;2023-06-24T05:59:07;8.83;;;6.33;;
38117;SDS011;23928;47.562;7.508;2023-06-24T06:01:32;7.57;;;5.80;;
38117;SDS011;23928;47.562;7.508;2023-06-24T06:03:58;10.23;;;6.70;;
38117;SDS011;23928;47.562;7.508;2023-06-24T06:06:23;10.40;;;6.73;;
38117;SDS011;23928;47.562;7.508;2023-06-24T06:08:49;7.27;;;5.70;;
38117;SDS011;23928;47.562;7.508;2023-06-24T06:11:14;8.93;;;6.53;;
38117;SDS011;23928;47.562;7.508;2023-06-24T06:13:40;9.00;;;6.53;;
38117;SDS011;23928;47.562;7.508;2023-06-24T06:16:06;6.83;;;5.87;;
38117;SDS011;23928;47.562;7.508;2023-06-24T06:18:32;7.27;;;6.10;;
38117;SDS011;23928;47.562;7.508;2023-06-24T06:20:57;8.87;;;5.57;;
38117;SDS011;23928;47.562;7.508;2023-06-24T06:23:23;8.20;;;5.60;;
38117;SDS011;23928;47.562;7.508;2023-06-24T06:25:49;7.67;;;5.90;;
38117;SDS011;23928;47.562;7.508;2023-06-24T06:28:15;8.33;;;5.90;;
38117;SDS011;23928;47.562;7.508;2023-06-24T06:30:41;6.70;;;6.10;;
38117;SDS011;23928;47.562;7.508;2023-06-24T06:33:06;7.47;;;5.70;;
38117;SDS011;23928;47.562;7.508;2023-06-24T06:35:32;8.17;;;6.13;;
38117;SDS011;23928;47.562;7.508;2023-06-24T06:37:57;7.73;;;5.87;;
38117;SDS011;23928;47.562;7.508;2023-06-24T06:40:23;7.67;;;5.70;;
38117;SDS011;23928;47.562;7.508;2023-06-24T06:42:49;6.90;;;5.90;;
38117;SDS011;23928;47.562;7.508;2023-06-24T06:45:14;8.20;;;6.40;;
38117;SDS011;23928;47.562;7.508;2023-06-24T06:47:40;6.80;;;5.67;;
38117;SDS011;23928;47.562;7.508;2023-06-24T06:50:06;7.23;;;5.40;;
38117;SDS011;23928;47.562;7.508;2023-06-24T06:52:32;6.37;;;4.97;;
38117;SDS011;23928;47.562;7.508;2023-06-24T06:54:58;6.90;;;5.97;;
38117;SDS011;23928;47.562;7.508;2023-06-24T06:57:24;7.83;;;5.93;;
38117;SDS011;23928;47.562;7.508;2023-06-24T06:59:50;6.93;;;6.20;;
38117;SDS011;23928;47.562;7.508;2023-06-24T07:02:16;10.03;;;6.40;;
38117;SDS011;23928;47.562;7.508;2023-06-24T07:04:45;8.00;;;6.43;;
38117;SDS011;23928;47.562;7.508;2023-06-24T07:07:12;8.10;;;5.57;;
38117;SDS011;23928;47.562;7.508;2023-06-24T07:09:38;8.57;;;6.70;;
38117;SDS011;23928;47.562;7.508;2023-06-24T07:12:04;7.50;;;6.00;;
38117;SDS011;23928;47.562;7.508;2023-06-24T07:14:31;8.37;;;6.43;;
38117;SDS011;23928;47.562;7.508;2023-06-24T07:16:56;8.93;;;6.53;;
38117;SDS011;23928;47.562;7.508;2023-06-24T07:19:22;5.90;;;5.17;;
38117;SDS011;23928;47.562;7.508;2023-06-24T07:21:47;9.20;;;5.83;;
38117;SDS011;23928;47.562;7.508;2023-06-24T07:24:13;7.87;;;6.07;;
38117;SDS011;23928;47.562;7.508;2023-06-24T07:26:38;6.73;;;5.73;;
38117;SDS011;23928;47.562;7.508;2023-06-24T07:29:07;9.60;;;5.60;;
38117;SDS011;23928;47.562;7.508;2023-06-24T07:31:33;9.17;;;5.70;;
38117;SDS011;23928;47.562;7.508;2023-06-24T07:33:59;7.07;;;6.10;;
38117;SDS011;23928;47.562;7.508;2023-06-24T07:36:25;8.60;;;6.40;;
38117;SDS011;23928;47.562;7.508;2023-06-24T07:38:50;7.50;;;5.70;;
38117;SDS011;23928;47.562;7.508;2023-06-24T07:41:16;6.13;;;5.13;;
38117;SDS011;23928;47.562;7.508;2023-06-24T07:43:42;7.43;;;5.40;;
38117;SDS011;23928;47.562;7.508;2023-06-24T07:46:07;6.57;;;5.40;;
38117;SDS011;23928;47.562;7.508;2023-06-24T07:48:33;7.33;;;5.90;;
38117;SDS011;23928;47.562;7.508;2023-06-24T07:50:58;6.80;;;5.30;;
38117;SDS011;23928;47.562;7.508;2023-06-24T07:53:24;7.40;;;5.70;;
38117;SDS011;23928;47.562;7.508;2023-06-24T07:55:50;7.13;;;5.23;;
38117;SDS011;23928;47.562;7.508;2023-06-24T07:58:15;5.93;;;5.33;;
38117;SDS011;23928;47.562;7.508;2023-06-24T08:00:41;6.00;;;5.40;;
38117;SDS011;23928;47.562;7.508;2023-06-24T08:03:07;5.90;;;5.10;;
38117;SDS011;23928;47.562;7.508;2023-06-24T08:05:33;7.00;;;5.30;;
38117;SDS011;23928;47.562;7.508;2023-06-24T08:07:58;7.70;;;5.10;;
38117;SDS011;23928;47.562;7.508;2023-06-24T08:10:24;5.97;;;5.23;;
38117;SDS011;23928;47.562;7.508;2023-06-24T08:12:50;5.43;;;4.93;;
38117;SDS011;23928;47.562;7.508;2023-06-24T08:15:15;6.90;;;5.33;;
38117;SDS011;23928;47.562;7.508;2023-06-24T08:17:41;6.43;;;5.13;;
38117;SDS011;23928;47.562;7.508;2023-06-24T08:20:07;5.63;;;5.03;;
38117;SDS011;23928;47.562;7.508;2023-06-24T08:22:33;7.20;;;5.20;;
38117;SDS011;23928;47.562;7.508;2023-06-24T08:24:58;5.63;;;5.03;;
38117;SDS011;23928;47.562;7.508;2023-06-24T08:27:24;5.43;;;4.63;;
38117;SDS011;23928;47.562;7.508;2023-06-24T08:29:50;5.57;;;5.00;;
38117;SDS011;23928;47.562;7.508;2023-06-24T08:32:15;5.80;;;5.10;;
38117;SDS011;23928;47.562;7.508;2023-06-24T08:34:41;7.47;;;5.57;;
38117;SDS011;23928;47.562;7.508;2023-06-24T08:37:06;5.60;;;4.77;;
38117;SDS011;23928;47.562;7.508;2023-06-24T08:39:32;7.90;;;5.70;;
38117;SDS011;23928;47.562;7.508;2023-06-24T08:41:57;7.20;;;5.13;;
38117;SDS011;23928;47.562;7.508;2023-06-24T08:44:23;7.43;;;5.30;;
38117;SDS011;23928;47.562;7.508;2023-06-24T08:46:49;6.67;;;4.93;;
38117;SDS011;23928;47.562;7.508;2023-06-24T08:51:46;8.20;;;5.10;;
38117;SDS011;23928;47.562;7.508;2023-06-24T08:54:16;7.87;;;5.20;;
38117;SDS011;23928;47.562;7.508;2023-06-24T08:56:44;6.07;;;5.27;;
38117;SDS011;23928;47.562;7.508;2023-06-24T08:59:10;6.07;;;5.30;;
38117;SDS011;23928;47.562;7.508;2023-06-24T09:01:36;6.40;;;5.43;;
38117;SDS011;23928;47.562;7.508;2023-06-24T09:04:01;7.93;;;5.23;;
38117;SDS011;23928;47.562;7.508;2023-06-24T09:06:27;6.10;;;5.20;;
38117;SDS011;23928;47.562;7.508;2023-06-24T09:08:56;4.77;;;4.37;;
38117;SDS011;23928;47.562;7.508;2023-06-24T09:11:26;6.30;;;4.73;;
38117;SDS011;23928;47.562;7.508;2023-06-24T09:13:58;5.67;;;4.93;;
38117;SDS011;23928;47.562;7.508;2023-06-24T09:16:25;6.00;;;4.37;;
38117;SDS011;23928;47.562;7.508;2023-06-24T09:18:52;5.57;;;4.97;;
38117;SDS011;23928;47.562;7.508;2023-06-24T09:21:21;6.03;;;4.23;;
38117;SDS011;23928;47.562;7.508;2023-06-24T09:23:52;5.67;;;4.57;;
38117;SDS011;23928;47.562;7.508;2023-06-24T09:26:25;5.43;;;4.40;;
38117;SDS011;23928;47.562;7.508;2023-06-24T09:28:52;5.37;;;4.87;;
38117;SDS011;23928;47.562;7.508;2023-06-24T09:31:18;4.70;;;4.30;;
38117;SDS011;23928;47.562;7.508;2023-06-24T09:33:44;5.17;;;4.50;;
38117;SDS011;23928;47.562;7.508;2023-06-24T09:36:11;4.43;;;4.03;;
38117;SDS011;23928;47.562;7.508;2023-06-24T09:38:41;4.93;;;4.07;;
38117;SDS011;23928;47.562;7.508;2023-06-24T09:41:08;4.77;;;3.57;;
38117;SDS011;23928;47.562;7.508;2023-06-24T09:43:34;6.87;;;4.47;;
38117;SDS011;23928;47.562;7.508;2023-06-24T09:46:05;4.50;;;4.10;;
38117;SDS011;23928;47.562;7.508;2023-06-24T09:48:31;4.70;;;4.27;;
38117;SDS011;23928;47.562;7.508;2023-06-24T09:51:01;5.07;;;4.57;;
38117;SDS011;23928;47.562;7.508;2023-06-24T09:53:32;5.07;;;4.40;;
38117;SDS011;23928;47.562;7.508;2023-06-24T09:56:00;5.83;;;4.80;;
38117;SDS011;23928;47.562;7.508;2023-06-24T09:58:31;4.70;;;4.27;;
38117;SDS011;23928;47.562;7.508;2023-06-24T10:01:04;4.83;;;4.33;;
38117;SDS011;23928;47.562;7.508;2023-06-24T10:03:31;5.07;;;4.43;;
38117;SDS011;23928;47.562;7.508;2023-06-24T10:06:01;5.37;;;4.60;;
38117;SDS011;23928;47.562;7.508;2023-06-24T10:08:29;4.80;;;4.20;;
38117;SDS011;23928;47.562;7.508;2023-06-24T10:10:56;5.90;;;4.47;;
38117;SDS011;23928;47.562;7.508;2023-06-24T10:13:21;4.97;;;4.40;;
38117;SDS011;23928;47.562;7.508;2023-06-24T10:15:48;4.40;;;4.00;;
38117;SDS011;23928;47.562;7.508;2023-06-24T10:18:32;5.67;;;4.70;;
38117;SDS011;23928;47.562;7.508;2023-06-24T10:21:05;5.50;;;4.50;;
38117;SDS011;23928;47.562;7.508;2023-06-24T10:23:41;4.63;;;4.10;;
38117;SDS011;23928;47.562;7.508;2023-06-24T10:26:22;5.00;;;4.40;;
38117;SDS011;23928;47.562;7.508;2023-06-24T10:36:58;5.10;;;4.60;;
38117;SDS011;23928;47.562;7.508;2023-06-24T10:40:10;6.27;;;3.87;;
38117;SDS011;23928;47.562;7.508;2023-06-24T10:44:52;4.67;;;4.27;;
38117;SDS011;23928;47.562;7.508;2023-06-24T10:47:21;6.27;;;4.60;;
38117;SDS011;23928;47.562;7.508;2023-06-24T10:49:48;4.93;;;4.13;;
38117;SDS011;23928;47.562;7.508;2023-06-24T10:52:14;5.23;;;4.37;;
38117;SDS011;23928;47.562;7.508;2023-06-24T10:54:46;5.60;;;4.00;;
38117;SDS011;23928;47.562;7.508;2023-06-24T10:57:12;4.27;;;3.83;;
38117;SDS011;23928;47.562;7.508;2023-06-24T10:59:41;5.70;;;4.10;;
38117;SDS011;23928;47.562;7.508;2023-06-24T11:02:13;5.33;;;4.23;;
38117;SDS011;23928;47.562;7.508;2023-06-24T11:07:12;4.30;;;3.90;;
38117;SDS011;23928;47.562;7.508;2023-06-24T11:09:40;7.37;;;4.17;;
38117;SDS011;23928;47.562;7.508;2023-06-24T11:12:08;4.50;;;4.00;;
38117;SDS011;23928;47.562;7.508;2023-06-24T11:14:35;4.97;;;4.23;;
38117;SDS011;23928;47.562;7.508;2023-06-24T11:17:01;6.37;;;4.13;;
38117;SDS011;23928;47.562;7.508;2023-06-24T11:19:29;4.47;;;3.80;;
38117;SDS011;23928;47.562;7.508;2023-06-24T11:21:58;5.07;;;4.20;;
38117;SDS011;23928;47.562;7.508;2023-06-24T11:24:25;5.03;;;4.50;;
38117;SDS011;23928;47.562;7.508;2023-06-24T11:26:52;4.13;;;3.73;;
38117;SDS011;23928;47.562;7.508;2023-06-24T11:29:17;4.00;;;3.70;;
38117;SDS011;23928;47.562;7.508;2023-06-24T11:31:44;5.37;;;4.30;;
38117;SDS011;23928;47.562;7.508;2023-06-24T11:34:10;4.30;;;3.90;;
38117;SDS011;23928;47.562;7.508;2023-06-24T11:36:36;4.40;;;4.00;;
38117;SDS011;23928;47.562;7.508;2023-06-24T11:39:01;4.70;;;4.00;;
38117;SDS011;23928;47.562;7.508;2023-06-24T11:41:28;4.40;;;4.00;;
38117;SDS011;23928;47.562;7.508;2023-06-24T11:43:54;4.97;;;4.03;;
38117;SDS011;23928;47.562;7.508;2023-06-24T11:46:26;5.70;;;4.63;;
38117;SDS011;23928;47.562;7.508;2023-06-24T11:48:52;4.70;;;4.20;;
38117;SDS011;23928;47.562;7.508;2023-06-24T11:51:28;5.23;;;3.80;;
38117;SDS011;23928;47.562;7.508;2023-06-24T11:53:58;4.50;;;3.90;;
38117;SDS011;23928;47.562;7.508;2023-06-24T11:56:34;6.87;;;4.37;;
38117;SDS011;23928;47.562;7.508;2023-06-24T11:59:01;6.40;;;4.33;;
38117;SDS011;23928;47.562;7.508;2023-06-24T12:01:31;5.17;;;4.00;;
38117;SDS011;23928;47.562;7.508;2023-06-24T12:03:59;3.97;;;3.63;;
38117;SDS011;23928;47.562;7.508;2023-06-24T12:06:26;4.67;;;4.00;;
38117;SDS011;23928;47.562;7.508;2023-06-24T12:08:52;4.33;;;3.93;;
38117;SDS011;23928;47.562;7.508;2023-06-24T12:11:17;4.23;;;3.53;;
38117;SDS011;23928;47.562;7.508;2023-06-24T12:13:43;4.07;;;3.70;;
38117;SDS011;23928;47.562;7.508;2023-06-24T12:16:09;4.00;;;3.60;;
38117;SDS011;23928;47.562;7.508;2023-06-24T12:18:34;4.77;;;3.90;;
38117;SDS011;23928;47.562;7.508;2023-06-24T12:21:00;5.00;;;3.97;;
38117;SDS011;23928;47.562;7.508;2023-06-24T12:23:25;4.50;;;3.40;;
38117;SDS011;23928;47.562;7.508;2023-06-24T12:25:51;4.23;;;3.83;;
38117;SDS011;23928;47.562;7.508;2023-06-24T12:28:17;6.37;;;3.87;;
38117;SDS011;23928;47.562;7.508;2023-06-24T12:30:42;4.43;;;4.03;;
38117;SDS011;23928;47.562;7.508;2023-06-24T12:33:08;4.87;;;3.60;;
38117;SDS011;23928;47.562;7.508;2023-06-24T12:35:33;4.03;;;3.63;;
38117;SDS011;23928;47.562;7.508;2023-06-24T12:37:59;7.43;;;4.30;;
38117;SDS011;23928;47.562;7.508;2023-06-24T12:40:25;4.53;;;3.53;;
38117;SDS011;23928;47.562;7.508;2023-06-24T12:42:50;3.90;;;3.27;;
38117;SDS011;23928;47.562;7.508;2023-06-24T12:45:16;6.60;;;3.33;;
38117;SDS011;23928;47.562;7.508;2023-06-24T12:47:41;5.03;;;3.67;;
38117;SDS011;23928;47.562;7.508;2023-06-24T12:50:07;4.30;;;3.90;;
38117;SDS011;23928;47.562;7.508;2023-06-24T12:52:33;3.60;;;3.30;;
38117;SDS011;23928;47.562;7.508;2023-06-24T12:54:59;5.23;;;4.27;;
38117;SDS011;23928;47.562;7.508;2023-06-24T12:57:25;5.43;;;4.10;;
38117;SDS011;23928;47.562;7.508;2023-06-24T12:59:50;6.20;;;3.87;;
38117;SDS011;23928;47.562;7.508;2023-06-24T13:02:16;4.27;;;3.83;;
38117;SDS011;23928;47.562;7.508;2023-06-24T13:04:41;4.30;;;3.80;;
38117;SDS011;23928;47.562;7.508;2023-06-24T13:07:07;5.00;;;3.70;;
38117;SDS011;23928;47.562;7.508;2023-06-24T13:09:34;5.87;;;4.07;;
38117;SDS011;23928;47.562;7.508;2023-06-24T13:12:00;4.60;;;3.87;;
38117;SDS011;23928;47.562;7.508;2023-06-24T13:14:26;4.10;;;3.70;;
38117;SDS011;23928;47.562;7.508;2023-06-24T13:16:53;4.23;;;3.57;;
38117;SDS011;23928;47.562;7.508;2023-06-24T13:19:19;6.20;;;4.13;;
38117;SDS011;23928;47.562;7.508;2023-06-24T13:21:46;4.17;;;3.60;;
38117;SDS011;23928;47.562;7.508;2023-06-24T13:24:11;3.90;;;3.60;;
38117;SDS011;23928;47.562;7.508;2023-06-24T13:26:37;3.97;;;3.57;;
38117;SDS011;23928;47.562;7.508;2023-06-24T13:29:03;4.10;;;3.73;;
38117;SDS011;23928;47.562;7.508;2023-06-24T13:31:29;3.90;;;3.60;;
38117;SDS011;23928;47.562;7.508;2023-06-24T13:33:54;4.10;;;3.70;;
38117;SDS011;23928;47.562;7.508;2023-06-24T13:36:36;4.70;;;3.90;;
38117;SDS011;23928;47.562;7.508;2023-06-24T13:39:03;4.40;;;3.50;;
38117;SDS011;23928;47.562;7.508;2023-06-24T13:41:30;4.07;;;3.60;;
38117;SDS011;23928;47.562;7.508;2023-06-24T13:43:58;4.07;;;3.60;;
38117;SDS011;23928;47.562;7.508;2023-06-24T13:46:24;3.80;;;3.40;;
38117;SDS011;23928;47.562;7.508;2023-06-24T13:48:50;4.50;;;3.60;;
38117;SDS011;23928;47.562;7.508;2023-06-24T13:51:17;3.90;;;3.57;;
38117;SDS011;23928;47.562;7.508;2023-06-24T13:53:43;3.87;;;3.57;;
38117;SDS011;23928;47.562;7.508;2023-06-24T13:56:09;4.07;;;3.67;;
38117;SDS011;23928;47.562;7.508;2023-06-24T13:58:35;4.37;;;3.90;;
38117;SDS011;23928;47.562;7.508;2023-06-24T14:01:00;3.93;;;3.33;;
38117;SDS011;23928;47.562;7.508;2023-06-24T14:03:26;3.87;;;3.53;;
38117;SDS011;23928;47.562;7.508;2023-06-24T14:05:51;4.17;;;3.43;;
38117;SDS011;23928;47.562;7.508;2023-06-24T14:08:17;3.83;;;3.40;;
38117;SDS011;23928;47.562;7.508;2023-06-24T14:10:42;4.43;;;3.90;;
38117;SDS011;23928;47.562;7.508;2023-06-24T14:13:08;3.87;;;3.57;;
38117;SDS011;23928;47.562;7.508;2023-06-24T14:15:34;5.87;;;3.40;;
38117;SDS011;23928;47.562;7.508;2023-06-24T14:18:00;5.50;;;4.07;;
38117;SDS011;23928;47.562;7.508;2023-06-24T14:20:25;4.00;;;3.20;;
38117;SDS011;23928;47.562;7.508;2023-06-24T14:22:51;4.17;;;3.77;;
38117;SDS011;23928;47.562;7.508;2023-06-24T14:25:17;3.50;;;3.20;;
38117;SDS011;23928;47.562;7.508;2023-06-24T14:27:44;5.27;;;3.47;;
38117;SDS011;23928;47.562;7.508;2023-06-24T14:30:09;5.10;;;3.27;;
38117;SDS011;23928;47.562;7.508;2023-06-24T14:32:35;3.57;;;3.23;;
38117;SDS011;23928;47.562;7.508;2023-06-24T14:35:01;3.60;;;3.30;;
38117;SDS011;23928;47.562;7.508;2023-06-24T14:37:26;4.87;;;3.93;;
38117;SDS011;23928;47.562;7.508;2023-06-24T14:39:52;4.63;;;3.43;;
38117;SDS011;23928;47.562;7.508;2023-06-24T14:42:17;3.93;;;3.53;;
38117;SDS011;23928;47.562;7.508;2023-06-24T14:44:43;3.47;;;3.10;;
38117;SDS011;23928;47.562;7.508;2023-06-24T14:47:09;4.03;;;3.50;;
38117;SDS011;23928;47.562;7.508;2023-06-24T14:49:34;4.57;;;3.60;;
38117;SDS011;23928;47.562;7.508;2023-06-24T14:52:00;5.50;;;3.67;;
38117;SDS011;23928;47.562;7.508;2023-06-24T14:54:26;3.80;;;3.50;;
38117;SDS011;23928;47.562;7.508;2023-06-24T14:56:51;3.73;;;3.40;;
38117;SDS011;23928;47.562;7.508;2023-06-24T14:59:17;3.90;;;3.33;;
38117;SDS011;23928;47.562;7.508;2023-06-24T15:01:42;3.83;;;3.43;;
38117;SDS011;23928;47.562;7.508;2023-06-24T15:04:08;3.43;;;3.13;;
38117;SDS011;23928;47.562;7.508;2023-06-24T15:06:34;4.03;;;3.00;;
38117;SDS011;23928;47.562;7.508;2023-06-24T15:08:59;5.90;;;4.07;;